sensor_id;sensor_type;location;lat;lon;timestamp;pressure;altitude;pressure_sealevel;temperature;humidity
5883;BME280;2967;51.488;6.618;2023-04-20T00:00:59;101853.41;;;10.43;65.05
5883;BME280;2967;51.488;6.618;2023-04-20T00:06:03;101846.69;;;10.36;61.24
5883;BME280;2967;51.488;6.618;2023-04-20T00:11:05;101838.84;;;10.34;64.28
5883;BME280;2967;51.488;6.618;2023-04-20T00:16:09;101838.13;;;10.31;60.71
5883;BME280;2967;51.488;6.618;2023-04-20T00:21:12;101823.63;;;10.21;60.36
5883;BME280;2967;51.488;6.618;2023-04-20T00:26:15;101818.41;;;10.19;58.80
5883;BME280;2967;51.488;6.618;2023-04-20T00:31:24;101810.41;;;10.02;57.55
5883;BME280;2967;51.488;6.618;2023-04-20T00:36:26;101797.66;;;9.92;58.61
5883;BME280;2967;51.488;6.618;2023-04-20T00:41:31;101782.00;;;9.69;59.85
5883;BME280;2967;51.488;6.618;2023-04-20T00:46:35;101770.75;;;9.45;59.70
5883;BME280;2967;51.488;6.618;2023-04-20T00:51:38;101775.75;;;9.31;60.38
5883;BME280;2967;51.488;6.618;2023-04-20T00:56:41;101769.59;;;9.32;61.61
5883;BME280;2967;51.488;6.618;2023-04-20T01:01:45;101768.47;;;9.38;63.92
5883;BME280;2967;51.488;6.618;2023-04-20T01:06:48;101746.63;;;9.53;66.24
5883;BME280;2967;51.488;6.618;2023-04-20T01:11:51;101733.78;;;9.64;64.01
5883;BME280;2967;51.488;6.618;2023-04-20T01:16:55;101731.16;;;9.64;65.59
5883;BME280;2967;51.488;6.618;2023-04-20T01:21:57;101723.16;;;9.84;63.30
5883;BME280;2967;51.488;6.618;2023-04-20T01:27:01;101712.31;;;9.90;61.92
5883;BME280;2967;51.488;6.618;2023-04-20T01:32:04;101687.88;;;9.66;61.15
5883;BME280;2967;51.488;6.618;2023-04-20T01:37:07;101702.16;;;9.81;60.96
5883;BME280;2967;51.488;6.618;2023-04-20T01:42:13;101703.03;;;9.63;62.52
5883;BME280;2967;51.488;6.618;2023-04-20T01:47:17;101699.75;;;9.58;62.91
5883;BME280;2967;51.488;6.618;2023-04-20T01:52:21;101700.78;;;9.54;62.49
5883;BME280;2967;51.488;6.618;2023-04-20T01:57:24;101683.88;;;9.39;63.47
5883;BME280;2967;51.488;6.618;2023-04-20T02:02:27;101672.00;;;9.29;63.35
5883;BME280;2967;51.488;6.618;2023-04-20T02:07:30;101661.03;;;9.20;63.97
5883;BME280;2967;51.488;6.618;2023-04-20T02:12:34;101671.13;;;9.10;64.18
5883;BME280;2967;51.488;6.618;2023-04-20T02:17:38;101658.84;;;9.09;64.87
5883;BME280;2967;51.488;6.618;2023-04-20T02:22:41;101647.31;;;9.12;64.49
5883;BME280;2967;51.488;6.618;2023-04-20T02:27:45;101648.88;;;9.16;65.49
5883;BME280;2967;51.488;6.618;2023-04-20T02:32:47;101632.47;;;9.09;65.63
5883;BME280;2967;51.488;6.618;2023-04-20T02:37:50;101615.78;;;9.09;65.57
5883;BME280;2967;51.488;6.618;2023-04-20T02:42:54;101619.84;;;9.16;65.85
5883;BME280;2967;51.488;6.618;2023-04-20T02:47:57;101619.09;;;9.32;66.56
5883;BME280;2967;51.488;6.618;2023-04-20T02:53:04;101618.63;;;9.23;66.46
5883;BME280;2967;51.488;6.618;2023-04-20T02:58:11;101613.31;;;9.24;67.44
5883;BME280;2967;51.488;6.618;2023-04-20T03:03:34;101600.16;;;9.23;66.33
5883;BME280;2967;51.488;6.618;2023-04-20T03:08:39;101597.53;;;9.23;68.26
5883;BME280;2967;51.488;6.618;2023-04-20T03:14:22;101606.53;;;9.19;69.49
5883;BME280;2967;51.488;6.618;2023-04-20T03:19:25;101600.81;;;9.28;69.38
5883;BME280;2967;51.488;6.618;2023-04-20T03:24:28;101600.88;;;9.26;70.35
5883;BME280;2967;51.488;6.618;2023-04-20T03:29:35;101592.97;;;9.26;70.08
5883;BME280;2967;51.488;6.618;2023-04-20T03:34:39;101585.09;;;9.25;69.94
5883;BME280;2967;51.488;6.618;2023-04-20T03:39:42;101561.41;;;9.05;71.79
5883;BME280;2967;51.488;6.618;2023-04-20T03:44:46;101573.13;;;9.18;71.76
5883;BME280;2967;51.488;6.618;2023-04-20T03:49:48;101558.78;;;9.05;71.58
5883;BME280;2967;51.488;6.618;2023-04-20T03:54:51;101574.50;;;9.08;72.59
5883;BME280;2967;51.488;6.618;2023-04-20T03:59:55;101559.28;;;9.13;73.99
5883;BME280;2967;51.488;6.618;2023-04-20T04:05:00;101556.59;;;9.14;74.07
5883;BME280;2967;51.488;6.618;2023-04-20T04:10:03;101551.44;;;9.11;74.66
5883;BME280;2967;51.488;6.618;2023-04-20T04:15:10;101547.16;;;9.09;75.46
5883;BME280;2967;51.488;6.618;2023-04-20T04:20:21;101547.28;;;9.06;76.84
5883;BME280;2967;51.488;6.618;2023-04-20T04:25:26;101528.75;;;9.07;76.52
5883;BME280;2967;51.488;6.618;2023-04-20T04:30:32;101522.56;;;9.08;76.80
5883;BME280;2967;51.488;6.618;2023-04-20T04:35:36;101521.97;;;9.02;78.26
5883;BME280;2967;51.488;6.618;2023-04-20T04:40:42;101521.25;;;9.17;79.45
5883;BME280;2967;51.488;6.618;2023-04-20T04:45:47;101527.97;;;9.24;79.82
5883;BME280;2967;51.488;6.618;2023-04-20T04:50:52;101513.00;;;9.24;80.58
5883;BME280;2967;51.488;6.618;2023-04-20T04:55:55;101522.31;;;9.31;82.21
5883;BME280;2967;51.488;6.618;2023-04-20T05:00:59;101514.97;;;9.38;82.74
5883;BME280;2967;51.488;6.618;2023-04-20T05:06:02;101524.38;;;9.43;84.32
5883;BME280;2967;51.488;6.618;2023-04-20T05:11:05;101527.69;;;9.47;86.20
5883;BME280;2967;51.488;6.618;2023-04-20T05:16:10;101496.94;;;9.29;87.91
5883;BME280;2967;51.488;6.618;2023-04-20T05:21:12;101525.72;;;9.52;88.34
5883;BME280;2967;51.488;6.618;2023-04-20T05:26:15;101530.13;;;9.51;88.83
5883;BME280;2967;51.488;6.618;2023-04-20T05:31:19;101536.81;;;9.58;89.72
5883;BME280;2967;51.488;6.618;2023-04-20T05:36:22;101539.75;;;9.88;91.23
5883;BME280;2967;51.488;6.618;2023-04-20T05:41:25;101543.94;;;9.92;89.25
5883;BME280;2967;51.488;6.618;2023-04-20T05:46:29;101546.97;;;10.01;89.32
5883;BME280;2967;51.488;6.618;2023-04-20T05:51:31;101534.50;;;10.05;88.42
5883;BME280;2967;51.488;6.618;2023-04-20T05:56:34;101543.28;;;10.05;88.13
5883;BME280;2967;51.488;6.618;2023-04-20T06:01:39;101533.72;;;10.03;89.33
5883;BME280;2967;51.488;6.618;2023-04-20T06:06:43;101530.25;;;10.02;89.77
5883;BME280;2967;51.488;6.618;2023-04-20T06:11:47;101535.25;;;10.07;89.47
5883;BME280;2967;51.488;6.618;2023-04-20T06:16:51;101536.41;;;10.01;90.63
5883;BME280;2967;51.488;6.618;2023-04-20T06:21:53;101538.72;;;9.90;90.47
5883;BME280;2967;51.488;6.618;2023-04-20T06:26:56;101530.66;;;9.93;89.91
5883;BME280;2967;51.488;6.618;2023-04-20T06:32:00;101525.72;;;10.04;90.71
5883;BME280;2967;51.488;6.618;2023-04-20T06:37:04;101532.16;;;10.16;90.17
5883;BME280;2967;51.488;6.618;2023-04-20T06:42:07;101533.63;;;10.21;90.99
5883;BME280;2967;51.488;6.618;2023-04-20T06:47:11;101534.84;;;9.97;91.87
5883;BME280;2967;51.488;6.618;2023-04-20T06:52:14;101525.72;;;10.04;90.81
5883;BME280;2967;51.488;6.618;2023-04-20T06:57:17;101522.38;;;10.18;91.33
5883;BME280;2967;51.488;6.618;2023-04-20T07:02:21;101535.53;;;10.02;92.69
5883;BME280;2967;51.488;6.618;2023-04-20T07:07:24;101521.97;;;10.08;92.16
5883;BME280;2967;51.488;6.618;2023-04-20T07:12:27;101538.38;;;9.98;93.41
5883;BME280;2967;51.488;6.618;2023-04-20T07:17:31;101535.44;;;10.04;92.81
5883;BME280;2967;51.488;6.618;2023-04-20T07:22:34;101535.44;;;10.04;92.59
5883;BME280;2967;51.488;6.618;2023-04-20T07:27:39;101513.34;;;10.05;93.55
5883;BME280;2967;51.488;6.618;2023-04-20T07:32:43;101531.31;;;10.15;93.80
5883;BME280;2967;51.488;6.618;2023-04-20T07:37:46;101537.44;;;10.16;92.19
5883;BME280;2967;51.488;6.618;2023-04-20T07:42:48;101530.84;;;10.07;92.29
5883;BME280;2967;51.488;6.618;2023-04-20T07:47:52;101535.38;;;10.05;92.61
5883;BME280;2967;51.488;6.618;2023-04-20T07:52:55;101530.31;;;10.18;93.27
5883;BME280;2967;51.488;6.618;2023-04-20T07:57:58;101534.78;;;10.33;93.11
5883;BME280;2967;51.488;6.618;2023-04-20T08:03:03;101520.78;;;10.48;91.41
5883;BME280;2967;51.488;6.618;2023-04-20T08:08:07;101518.44;;;10.58;90.50
5883;BME280;2967;51.488;6.618;2023-04-20T08:13:10;101517.38;;;10.61;91.01
5883;BME280;2967;51.488;6.618;2023-04-20T08:18:13;101515.59;;;10.61;91.20
5883;BME280;2967;51.488;6.618;2023-04-20T08:23:17;101499.94;;;10.74;89.65
5883;BME280;2967;51.488;6.618;2023-04-20T08:28:20;101497.97;;;10.77;88.52
5883;BME280;2967;51.488;6.618;2023-04-20T08:33:36;101501.03;;;10.85;89.26
5883;BME280;2967;51.488;6.618;2023-04-20T08:38:39;101478.03;;;10.87;88.13
5883;BME280;2967;51.488;6.618;2023-04-20T08:43:42;101493.47;;;11.10;85.51
5883;BME280;2967;51.488;6.618;2023-04-20T08:48:47;101489.38;;;11.05;86.17
5883;BME280;2967;51.488;6.618;2023-04-20T08:53:50;101500.91;;;11.04;86.50
5883;BME280;2967;51.488;6.618;2023-04-20T08:58:55;101487.41;;;10.93;87.52
5883;BME280;2967;51.488;6.618;2023-04-20T09:04:00;101501.22;;;10.82;88.36
5883;BME280;2967;51.488;6.618;2023-04-20T09:09:09;101492.25;;;10.85;89.56
5883;BME280;2967;51.488;6.618;2023-04-20T09:14:13;101490.06;;;10.93;89.67
5883;BME280;2967;51.488;6.618;2023-04-20T09:19:21;101486.09;;;10.84;88.43
5883;BME280;2967;51.488;6.618;2023-04-20T09:24:29;101488.25;;;10.93;89.83
5883;BME280;2967;51.488;6.618;2023-04-20T09:29:32;101483.97;;;10.91;90.79
5883;BME280;2967;51.488;6.618;2023-04-20T09:34:43;101477.16;;;10.87;90.02
5883;BME280;2967;51.488;6.618;2023-04-20T09:39:46;101474.41;;;10.73;89.94
5883;BME280;2967;51.488;6.618;2023-04-20T09:44:48;101484.38;;;10.68;89.65
5883;BME280;2967;51.488;6.618;2023-04-20T09:49:54;101469.94;;;10.58;89.86
5883;BME280;2967;51.488;6.618;2023-04-20T09:54:57;101472.50;;;10.59;89.51
5883;BME280;2967;51.488;6.618;2023-04-20T10:00:01;101480.69;;;10.55;89.13
5883;BME280;2967;51.488;6.618;2023-04-20T10:05:08;101449.59;;;10.28;93.26
5883;BME280;2967;51.488;6.618;2023-04-20T10:10:12;101465.06;;;10.50;96.05
5883;BME280;2967;51.488;6.618;2023-04-20T10:15:16;101466.72;;;10.68;98.81
5883;BME280;2967;51.488;6.618;2023-04-20T10:20:22;101454.69;;;10.78;97.49
5883;BME280;2967;51.488;6.618;2023-04-20T10:25:25;101454.44;;;10.98;94.89
5883;BME280;2967;51.488;6.618;2023-04-20T10:30:29;101455.53;;;11.25;94.78
5883;BME280;2967;51.488;6.618;2023-04-20T10:35:45;101444.81;;;11.42;94.10
5883;BME280;2967;51.488;6.618;2023-04-20T10:40:48;101435.66;;;11.63;94.17
5883;BME280;2967;51.488;6.618;2023-04-20T10:45:50;101427.78;;;11.62;95.17
5883;BME280;2967;51.488;6.618;2023-04-20T10:50:55;101428.13;;;11.71;93.78
5883;BME280;2967;51.488;6.618;2023-04-20T10:55:59;101428.88;;;11.87;90.14
5883;BME280;2967;51.488;6.618;2023-04-20T11:01:03;101419.13;;;11.74;90.96
5883;BME280;2967;51.488;6.618;2023-04-20T11:06:07;101434.16;;;11.73;88.54
5883;BME280;2967;51.488;6.618;2023-04-20T11:11:17;101420.56;;;11.93;89.47
5883;BME280;2967;51.488;6.618;2023-04-20T11:16:20;101409.13;;;12.07;86.11
5883;BME280;2967;51.488;6.618;2023-04-20T11:21:39;101406.03;;;12.42;89.12
5883;BME280;2967;51.488;6.618;2023-04-20T11:26:42;101390.59;;;12.75;89.24
5883;BME280;2967;51.488;6.618;2023-04-20T11:31:49;101373.97;;;12.59;86.58
5883;BME280;2967;51.488;6.618;2023-04-20T11:36:53;101384.97;;;12.53;82.96
5883;BME280;2967;51.488;6.618;2023-04-20T11:41:57;101393.78;;;12.40;81.95
5883;BME280;2967;51.488;6.618;2023-04-20T11:46:59;101378.81;;;12.53;84.08
5883;BME280;2967;51.488;6.618;2023-04-20T11:52:04;101379.06;;;12.62;85.26
5883;BME280;2967;51.488;6.618;2023-04-20T11:57:07;101373.56;;;12.65;80.41
5883;BME280;2967;51.488;6.618;2023-04-20T12:02:10;101380.13;;;12.60;79.51
5883;BME280;2967;51.488;6.618;2023-04-20T12:07:14;101381.91;;;12.73;78.67
5883;BME280;2967;51.488;6.618;2023-04-20T12:12:17;101384.22;;;13.06;79.41
5883;BME280;2967;51.488;6.618;2023-04-20T12:17:19;101367.91;;;13.24;79.16
5883;BME280;2967;51.488;6.618;2023-04-20T12:22:23;101369.06;;;13.59;79.92
5883;BME280;2967;51.488;6.618;2023-04-20T12:27:26;101360.56;;;14.04;77.16
5883;BME280;2967;51.488;6.618;2023-04-20T12:32:29;101361.13;;;14.70;75.26
5883;BME280;2967;51.488;6.618;2023-04-20T12:37:33;101361.34;;;14.90;70.23
5883;BME280;2967;51.488;6.618;2023-04-20T12:42:35;101357.78;;;14.79;69.18
5883;BME280;2967;51.488;6.618;2023-04-20T12:47:38;101376.31;;;14.44;70.87
5883;BME280;2967;51.488;6.618;2023-04-20T12:52:42;101355.00;;;14.44;70.71
5883;BME280;2967;51.488;6.618;2023-04-20T12:57:45;101357.94;;;14.52;71.26
5883;BME280;2967;51.488;6.618;2023-04-20T13:02:48;101374.56;;;14.56;69.85
5883;BME280;2967;51.488;6.618;2023-04-20T13:07:52;101362.91;;;14.21;69.67
5883;BME280;2967;51.488;6.618;2023-04-20T13:12:55;101367.66;;;14.16;69.50
5883;BME280;2967;51.488;6.618;2023-04-20T13:17:58;101357.03;;;14.41;67.76
5883;BME280;2967;51.488;6.618;2023-04-20T13:23:02;101353.19;;;14.81;69.32
5883;BME280;2967;51.488;6.618;2023-04-20T13:28:05;101361.31;;;14.67;68.52
5883;BME280;2967;51.488;6.618;2023-04-20T13:33:08;101354.38;;;14.41;69.33
5883;BME280;2967;51.488;6.618;2023-04-20T13:38:12;101353.13;;;14.21;69.96
5883;BME280;2967;51.488;6.618;2023-04-20T13:43:15;101348.88;;;14.19;68.73
5883;BME280;2967;51.488;6.618;2023-04-20T13:48:20;101348.66;;;14.22;66.05
5883;BME280;2967;51.488;6.618;2023-04-20T13:53:24;101348.97;;;14.17;65.32
5883;BME280;2967;51.488;6.618;2023-04-20T13:58:27;101350.34;;;13.98;66.91
5883;BME280;2967;51.488;6.618;2023-04-20T14:03:30;101340.56;;;13.73;69.10
5883;BME280;2967;51.488;6.618;2023-04-20T14:08:34;101337.47;;;13.79;68.34
5883;BME280;2967;51.488;6.618;2023-04-20T14:13:37;101333.53;;;13.85;70.17
5883;BME280;2967;51.488;6.618;2023-04-20T14:18:49;101325.56;;;14.10;69.90
5883;BME280;2967;51.488;6.618;2023-04-20T14:23:52;101246.31;;;13.65;65.49
5883;BME280;2967;51.488;6.618;2023-04-20T14:28:55;101333.97;;;14.65;69.02
5883;BME280;2967;51.488;6.618;2023-04-20T14:33:59;101320.38;;;15.04;65.92
5883;BME280;2967;51.488;6.618;2023-04-20T14:39:02;101322.97;;;15.40;65.12
5883;BME280;2967;51.488;6.618;2023-04-20T14:44:05;101316.97;;;15.71;63.20
5883;BME280;2967;51.488;6.618;2023-04-20T14:49:09;101332.03;;;15.93;61.78
5883;BME280;2967;51.488;6.618;2023-04-20T14:54:11;101331.19;;;15.37;61.59
5883;BME280;2967;51.488;6.618;2023-04-20T14:59:14;101317.56;;;15.29;63.47
5883;BME280;2967;51.488;6.618;2023-04-20T15:04:18;101315.19;;;15.37;63.41
5883;BME280;2967;51.488;6.618;2023-04-20T15:09:21;101311.94;;;15.33;61.82
5883;BME280;2967;51.488;6.618;2023-04-20T15:14:24;101311.53;;;15.38;62.75
5883;BME280;2967;51.488;6.618;2023-04-20T15:19:28;101306.50;;;15.57;62.08
5883;BME280;2967;51.488;6.618;2023-04-20T15:24:30;101297.38;;;15.37;61.13
5883;BME280;2967;51.488;6.618;2023-04-20T15:29:33;101312.69;;;15.23;61.12
5883;BME280;2967;51.488;6.618;2023-04-20T15:34:37;101307.38;;;14.99;59.88
5883;BME280;2967;51.488;6.618;2023-04-20T15:39:40;101303.59;;;14.67;62.41
5883;BME280;2967;51.488;6.618;2023-04-20T15:44:43;101290.38;;;14.66;61.93
5883;BME280;2967;51.488;6.618;2023-04-20T15:49:47;101289.59;;;14.53;62.56
5883;BME280;2967;51.488;6.618;2023-04-20T15:54:53;101278.06;;;14.29;59.78
5883;BME280;2967;51.488;6.618;2023-04-20T15:59:55;101272.44;;;14.21;60.24
5883;BME280;2967;51.488;6.618;2023-04-20T16:05:02;101287.34;;;14.23;59.45
5883;BME280;2967;51.488;6.618;2023-04-20T16:10:06;101273.50;;;14.18;58.68
5883;BME280;2967;51.488;6.618;2023-04-20T16:15:09;101265.09;;;14.12;57.60
5883;BME280;2967;51.488;6.618;2023-04-20T16:20:13;101249.78;;;14.03;59.51
5883;BME280;2967;51.488;6.618;2023-04-20T16:25:18;101271.16;;;14.26;61.11
5883;BME280;2967;51.488;6.618;2023-04-20T16:30:23;101264.97;;;14.26;63.51
5883;BME280;2967;51.488;6.618;2023-04-20T16:42:14;101269.06;;;13.94;62.16
5883;BME280;2967;51.488;6.618;2023-04-20T16:47:17;101293.53;;;13.86;63.95
5883;BME280;2967;51.488;6.618;2023-04-20T16:52:19;101298.53;;;13.78;66.97
5883;BME280;2967;51.488;6.618;2023-04-20T16:57:24;101301.09;;;13.80;69.01
5883;BME280;2967;51.488;6.618;2023-04-20T17:02:27;101302.25;;;13.76;70.24
5883;BME280;2967;51.488;6.618;2023-04-20T17:07:33;101306.94;;;13.60;69.63
5883;BME280;2967;51.488;6.618;2023-04-20T17:12:39;101296.53;;;13.69;70.52
5883;BME280;2967;51.488;6.618;2023-04-20T17:17:42;101297.59;;;13.79;69.96
5883;BME280;2967;51.488;6.618;2023-04-20T17:22:45;101298.53;;;13.78;68.80
5883;BME280;2967;51.488;6.618;2023-04-20T17:27:49;101304.41;;;13.83;68.26
5883;BME280;2967;51.488;6.618;2023-04-20T17:32:51;101304.09;;;13.75;68.42
5883;BME280;2967;51.488;6.618;2023-04-20T17:37:54;101306.31;;;13.69;69.77
5883;BME280;2967;51.488;6.618;2023-04-20T17:42:58;101316.19;;;13.54;69.20
5883;BME280;2967;51.488;6.618;2023-04-20T17:48:00;101305.56;;;13.42;69.44
5883;BME280;2967;51.488;6.618;2023-04-20T17:53:03;101315.41;;;13.27;70.65
5883;BME280;2967;51.488;6.618;2023-04-20T17:58:10;101317.31;;;13.25;70.83
5883;BME280;2967;51.488;6.618;2023-04-20T18:03:13;101347.91;;;13.18;71.37
5883;BME280;2967;51.488;6.618;2023-04-20T18:08:16;101344.53;;;13.03;72.67
5883;BME280;2967;51.488;6.618;2023-04-20T18:13:20;101350.94;;;12.86;73.46
5883;BME280;2967;51.488;6.618;2023-04-20T18:18:23;101376.84;;;12.83;74.23
5883;BME280;2967;51.488;6.618;2023-04-20T18:23:26;101375.09;;;12.69;74.78
5883;BME280;2967;51.488;6.618;2023-04-20T18:28:31;101370.00;;;12.52;75.66
5883;BME280;2967;51.488;6.618;2023-04-20T18:33:34;101364.13;;;12.47;76.78
5883;BME280;2967;51.488;6.618;2023-04-20T18:38:36;101370.66;;;12.42;78.18
5883;BME280;2967;51.488;6.618;2023-04-20T18:43:40;101376.47;;;12.34;78.88
5883;BME280;2967;51.488;6.618;2023-04-20T18:48:45;101378.44;;;12.31;80.14
5883;BME280;2967;51.488;6.618;2023-04-20T18:53:48;101373.53;;;12.11;82.02
5883;BME280;2967;51.488;6.618;2023-04-20T18:58:52;101386.31;;;12.04;83.48
5883;BME280;2967;51.488;6.618;2023-04-20T19:03:58;101387.63;;;11.97;85.95
5883;BME280;2967;51.488;6.618;2023-04-20T19:09:01;101388.50;;;11.98;86.45
5883;BME280;2967;51.488;6.618;2023-04-20T19:14:06;101386.13;;;11.93;86.74
5883;BME280;2967;51.488;6.618;2023-04-20T19:19:09;101377.69;;;11.87;87.70
5883;BME280;2967;51.488;6.618;2023-04-20T19:24:12;101358.81;;;11.77;88.09
5883;BME280;2967;51.488;6.618;2023-04-20T19:29:15;101372.66;;;11.82;87.87
5883;BME280;2967;51.488;6.618;2023-04-20T19:34:19;101369.16;;;11.82;88.76
5883;BME280;2967;51.488;6.618;2023-04-20T19:39:22;101357.97;;;11.77;88.48
5883;BME280;2967;51.488;6.618;2023-04-20T19:44:26;101352.28;;;11.69;89.72
5883;BME280;2967;51.488;6.618;2023-04-20T19:49:30;101345.38;;;11.66;89.81
5883;BME280;2967;51.488;6.618;2023-04-20T19:54:34;101339.00;;;11.55;90.75
5883;BME280;2967;51.488;6.618;2023-04-20T19:59:40;101348.06;;;11.51;91.45
5883;BME280;2967;51.488;6.618;2023-04-20T20:04:42;101343.88;;;11.47;91.63
5883;BME280;2967;51.488;6.618;2023-04-20T20:09:45;101336.97;;;11.44;91.96
5883;BME280;2967;51.488;6.618;2023-04-20T20:14:49;101332.13;;;11.37;92.25
5883;BME280;2967;51.488;6.618;2023-04-20T20:19:52;101328.53;;;11.38;92.77
5883;BME280;2967;51.488;6.618;2023-04-20T20:24:56;101326.75;;;11.38;93.00
5883;BME280;2967;51.488;6.618;2023-04-20T20:30:00;101312.66;;;11.38;93.38
5883;BME280;2967;51.488;6.618;2023-04-20T20:35:03;101301.78;;;11.42;94.22
5883;BME280;2967;51.488;6.618;2023-04-20T20:40:08;101306.41;;;11.39;94.78
5883;BME280;2967;51.488;6.618;2023-04-20T20:45:13;101308.03;;;11.41;94.77
5883;BME280;2967;51.488;6.618;2023-04-20T20:50:16;101301.84;;;11.41;96.01
5883;BME280;2967;51.488;6.618;2023-04-20T20:55:19;101308.97;;;11.40;96.85
5883;BME280;2967;51.488;6.618;2023-04-20T21:00:23;101314.06;;;11.43;97.42
5883;BME280;2967;51.488;6.618;2023-04-20T21:05:26;101316.25;;;11.37;100.00
5883;BME280;2967;51.488;6.618;2023-04-20T21:10:29;101339.59;;;11.30;100.00
5883;BME280;2967;51.488;6.618;2023-04-20T21:15:33;101339.09;;;11.24;100.00
5883;BME280;2967;51.488;6.618;2023-04-20T21:20:35;101336.25;;;11.13;100.00
5883;BME280;2967;51.488;6.618;2023-04-20T21:25:38;101337.16;;;11.12;100.00
5883;BME280;2967;51.488;6.618;2023-04-20T21:30:42;101331.97;;;11.10;100.00
5883;BME280;2967;51.488;6.618;2023-04-20T21:35:44;101321.16;;;10.99;100.00
5883;BME280;2967;51.488;6.618;2023-04-20T21:40:47;101323.69;;;11.01;100.00
5883;BME280;2967;51.488;6.618;2023-04-20T21:45:51;101329.09;;;10.99;100.00
5883;BME280;2967;51.488;6.618;2023-04-20T21:50:53;101325.00;;;10.94;100.00
5883;BME280;2967;51.488;6.618;2023-04-20T21:55:56;101324.31;;;10.90;100.00
5883;BME280;2967;51.488;6.618;2023-04-20T22:01:00;101317.47;;;10.86;100.00
5883;BME280;2967;51.488;6.618;2023-04-20T22:06:03;101307.53;;;10.76;100.00
5883;BME280;2967;51.488;6.618;2023-04-20T22:11:06;101303.00;;;10.78;100.00
5883;BME280;2967;51.488;6.618;2023-04-20T22:16:10;101300.78;;;10.70;100.00
5883;BME280;2967;51.488;6.618;2023-04-20T22:21:13;101281.41;;;10.70;100.00
5883;BME280;2967;51.488;6.618;2023-04-20T22:26:16;101262.72;;;10.73;100.00
5883;BME280;2967;51.488;6.618;2023-04-20T22:31:20;101266.47;;;10.69;100.00
5883;BME280;2967;51.488;6.618;2023-04-20T22:36:23;101260.66;;;10.78;100.00
5883;BME280;2967;51.488;6.618;2023-04-20T22:41:25;101261.09;;;10.70;100.00
5883;BME280;2967;51.488;6.618;2023-04-20T22:46:29;101261.38;;;10.66;100.00
5883;BME280;2967;51.488;6.618;2023-04-20T22:51:31;101260.50;;;10.65;100.00
5883;BME280;2967;51.488;6.618;2023-04-20T22:56:34;101259.00;;;10.61;100.00
5883;BME280;2967;51.488;6.618;2023-04-20T23:01:38;101251.81;;;10.63;100.00
5883;BME280;2967;51.488;6.618;2023-04-20T23:06:41;101246.97;;;10.56;100.00
5883;BME280;2967;51.488;6.618;2023-04-20T23:11:45;101248.66;;;10.57;100.00
5883;BME280;2967;51.488;6.618;2023-04-20T23:16:49;101254.91;;;10.56;100.00
5883;BME280;2967;51.488;6.618;2023-04-20T23:21:52;101240.81;;;10.55;100.00
5883;BME280;2967;51.488;6.618;2023-04-20T23:26:54;101230.59;;;10.49;100.00
5883;BME280;2967;51.488;6.618;2023-04-20T23:31:59;101223.63;;;10.48;100.00
5883;BME280;2967;51.488;6.618;2023-04-20T23:37:02;101223.88;;;10.44;100.00
5883;BME280;2967;51.488;6.618;2023-04-20T23:42:05;101214.06;;;10.46;100.00
5883;BME280;2967;51.488;6.618;2023-04-20T23:47:09;101200.41;;;10.38;100.00
5883;BME280;2967;51.488;6.618;2023-04-20T23:52:11;101195.13;;;10.38;100.00
5883;BME280;2967;51.488;6.618;2023-04-20T23:57:14;101184.34;;;10.41;100.00
